Time;durP1;ratioP1;P1;durP2;ratioP2;P2;SDS_P1;SDS_P2;PMS_P1;PMS_P2;Temp;Humidity;BMP_temperature;BMP_pressure;BME280_temperature;BME280_humidity;BME280_pressure;Samples;Min_cycle;Max_cycle;Signal;HPM_P1;HPM_P2
2023/04/05 00:01:59;;;;;;;2.40;1.80;;;;;;;;;;5035818;28;20204;-40
2023/04/05 00:04:27;;;;;;;4.90;2.40;;;;;;;;;;5018198;28;20243;-40
2023/04/05 00:06:57;;;;;;;2.93;2.37;;;;;;;;;;5035952;28;20563;-40
2023/04/05 00:09:25;;;;;;;3.93;2.73;;;;;;;;;;5035339;28;20205;-40
2023/04/05 00:11:52;;;;;;;2.17;1.80;;;;;;;;;;5035567;28;20208;-40
2023/04/05 00:14:19;;;;;;;1.73;1.60;;;;;;;;;;5035662;28;20267;-39
2023/04/05 00:16:46;;;;;;;5.10;2.70;;;;;;;;;;5035708;28;20205;-40
2023/04/05 00:19:14;;;;;;;3.93;2.97;;;;;;;;;;5018041;28;20205;-40
2023/04/05 00:21:41;;;;;;;3.13;2.30;;;;;;;;;;5035086;28;20721;-41
2023/04/05 00:24:14;;;;;;;2.30;2.10;;;;;;;;;;5035103;28;20608;-40
2023/04/05 00:26:42;;;;;;;2.73;2.20;;;;;;;;;;5035520;28;20201;-40
2023/04/05 00:29:10;;;;;;;3.70;2.13;;;;;;;;;;5033901;28;20607;-40
2023/04/05 00:31:37;;;;;;;4.73;1.77;;;;;;;;;;5035057;28;20571;-40
2023/04/05 00:34:07;;;;;;;3.23;2.07;;;;;;;;;;5013797;28;20256;-40
2023/04/05 00:36:35;;;;;;;3.83;2.53;;;;;;;;;;5014049;28;20293;-40
2023/04/05 00:39:02;;;;;;;3.43;2.10;;;;;;;;;;5013856;28;20216;-40
2023/04/05 00:41:29;;;;;;;3.13;2.67;;;;;;;;;;5014087;28;20205;-40
2023/04/05 00:43:58;;;;;;;4.27;2.63;;;;;;;;;;5015289;28;20202;-40
2023/04/05 00:46:25;;;;;;;2.70;2.00;;;;;;;;;;5014704;28;20717;-41
2023/04/05 00:48:53;;;;;;;6.93;2.47;;;;;;;;;;5014859;28;20204;-40
2023/04/05 00:51:22;;;;;;;5.67;2.50;;;;;;;;;;5013611;28;20233;-40
2023/04/05 00:53:51;;;;;;;3.37;2.23;;;;;;;;;;5007718;28;20267;-40
2023/04/05 00:56:20;;;;;;;8.10;3.13;;;;;;;;;;5014671;28;20577;-40
2023/04/05 00:58:50;;;;;;;5.17;2.27;;;;;;;;;;5014835;28;20208;-40
2023/04/05 01:01:21;;;;;;;4.53;2.40;;;;;;;;;;5014767;28;20202;-40
2023/04/05 01:03:54;;;;;;;2.40;2.20;;;;;;;;;;5013488;28;20210;-41
2023/04/05 01:06:37;;;;;;;3.30;2.20;;;;;;;;;;5014907;28;20225;-39
2023/04/05 01:09:38;;;;;;;5.73;3.07;;;;;;;;;;5013419;28;20658;-40
2023/04/05 01:12:06;;;;;;;2.30;2.03;;;;;;;;;;4996883;28;20196;-40
2023/04/05 01:14:51;;;;;;;2.77;1.97;;;;;;;;;;4997305;28;20198;-40
2023/04/05 01:17:23;;;;;;;2.23;1.87;;;;;;;;;;5014645;28;20688;-40
2023/04/05 01:19:57;;;;;;;3.80;2.27;;;;;;;;;;5014312;28;20201;-40
2023/04/05 01:23:02;;;;;;;3.67;2.50;;;;;;;;;;4996798;28;20205;-40
2023/04/05 01:25:48;;;;;;;8.50;2.40;;;;;;;;;;4996853;28;20232;-40
2023/04/05 01:28:30;;;;;;;5.27;3.00;;;;;;;;;;5014345;28;20205;-40
2023/04/05 01:31:41;;;;;;;4.27;2.43;;;;;;;;;;5014630;28;20257;-41
2023/04/05 01:34:20;;;;;;;10.90;2.63;;;;;;;;;;4972954;28;20217;-40
2023/04/05 01:37:01;;;;;;;4.13;2.57;;;;;;;;;;4973129;28;20567;-40
2023/04/05 01:39:29;;;;;;;4.87;2.50;;;;;;;;;;4973023;28;20202;-40
2023/04/05 01:42:00;;;;;;;3.03;2.40;;;;;;;;;;4956891;28;20239;-40
2023/04/05 01:44:30;;;;;;;9.03;3.13;;;;;;;;;;4972968;28;20215;-41
2023/04/05 01:46:57;;;;;;;4.17;2.50;;;;;;;;;;4973016;28;20226;-40
2023/04/05 01:49:24;;;;;;;5.53;3.00;;;;;;;;;;4972722;28;20215;-41
2023/04/05 01:51:51;;;;;;;4.27;2.43;;;;;;;;;;4972841;28;20230;-39
2023/04/05 01:54:18;;;;;;;2.87;2.47;;;;;;;;;;4972696;28;20303;-40
2023/04/05 01:56:45;;;;;;;5.23;3.17;;;;;;;;;;4973295;28;20223;-40
2023/04/05 01:59:12;;;;;;;2.70;2.30;;;;;;;;;;4972762;28;20222;-40
2023/04/05 02:01:39;;;;;;;3.80;2.70;;;;;;;;;;4972719;28;20202;-40
2023/04/05 02:04:06;;;;;;;3.20;2.30;;;;;;;;;;4956447;28;20273;-40
2023/04/05 02:06:36;;;;;;;3.47;2.33;;;;;;;;;;4972518;28;20226;-40
2023/04/05 02:09:02;;;;;;;4.33;2.57;;;;;;;;;;4980763;28;20206;-40
2023/04/05 02:11:30;;;;;;;3.53;2.47;;;;;;;;;;4996306;28;20208;-40
2023/04/05 02:13:57;;;;;;;2.93;2.37;;;;;;;;;;5013785;28;20228;-40
2023/04/05 02:16:25;;;;;;;4.93;2.70;;;;;;;;;;5019257;28;20213;-41
2023/04/05 02:18:56;;;;;;;6.23;2.43;;;;;;;;;;5002778;28;20574;-40
2023/04/05 02:21:25;;;;;;;3.37;2.47;;;;;;;;;;5020338;28;20257;-40
2023/04/05 02:23:53;;;;;;;3.10;1.97;;;;;;;;;;5020361;28;20267;-40
2023/04/05 02:26:20;;;;;;;4.23;2.57;;;;;;;;;;5002411;28;20233;-43
2023/04/05 02:28:47;;;;;;;3.73;2.30;;;;;;;;;;5019887;28;20236;-43
2023/04/05 02:31:15;;;;;;;5.87;2.50;;;;;;;;;;5019900;28;20255;-40
2023/04/05 02:33:42;;;;;;;3.63;2.63;;;;;;;;;;5019894;28;20668;-40
2023/04/05 02:36:11;;;;;;;2.63;2.30;;;;;;;;;;5020116;28;20213;-40
2023/04/05 02:38:38;;;;;;;3.90;2.20;;;;;;;;;;5019968;28;20206;-40
2023/04/05 02:41:10;;;;;;;2.63;1.83;;;;;;;;;;5020220;28;20213;-41
2023/04/05 02:43:38;;;;;;;3.33;2.00;;;;;;;;;;5020171;28;20243;-40
2023/04/05 02:46:05;;;;;;;3.67;2.07;;;;;;;;;;5020052;28;20224;-40
2023/04/05 02:48:37;;;;;;;2.17;1.97;;;;;;;;;;5002536;28;20204;-40
2023/04/05 02:51:05;;;;;;;3.00;2.37;;;;;;;;;;5002530;28;20202;-40
2023/04/05 02:53:32;;;;;;;2.63;2.27;;;;;;;;;;5019856;28;20538;-40
2023/04/05 02:56:04;;;;;;;2.90;2.20;;;;;;;;;;5002343;28;20209;-40
2023/04/05 02:58:34;;;;;;;3.57;2.50;;;;;;;;;;5002499;28;20540;-40
2023/04/05 03:01:06;;;;;;;2.23;2.00;;;;;;;;;;5019670;28;20701;-40
2023/04/05 03:03:33;;;;;;;2.47;1.80;;;;;;;;;;5002190;28;20200;-40
2023/04/05 03:06:10;;;;;;;2.67;2.00;;;;;;;;;;5002232;28;20229;-40
2023/04/05 03:08:45;;;;;;;2.63;1.80;;;;;;;;;;5002248;28;20224;-39
2023/04/05 03:11:15;;;;;;;3.23;2.17;;;;;;;;;;5002181;28;20209;-40
2023/04/05 03:13:46;;;;;;;4.03;2.40;;;;;;;;;;5002191;28;20300;-40
2023/04/05 03:16:28;;;;;;;2.07;1.70;;;;;;;;;;5002315;28;20240;-40
2023/04/05 03:18:59;;;;;;;2.80;1.80;;;;;;;;;;5002015;28;20202;-40
2023/04/05 03:21:28;;;;;;;2.83;2.23;;;;;;;;;;5001950;28;20205;-40
2023/04/05 03:24:04;;;;;;;2.37;1.80;;;;;;;;;;5002313;28;20380;-40
2023/04/05 03:26:37;;;;;;;2.40;2.00;;;;;;;;;;4999752;28;20226;-41
2023/04/05 03:29:05;;;;;;;2.03;1.70;;;;;;;;;;4998912;28;20205;-40
2023/04/05 03:31:35;;;;;;;3.47;2.17;;;;;;;;;;4998827;28;20201;-40
2023/04/05 03:34:06;;;;;;;2.30;2.00;;;;;;;;;;4998901;28;20212;-41
2023/04/05 03:36:42;;;;;;;1.60;1.47;;;;;;;;;;5015633;28;20567;-40
2023/04/05 03:39:23;;;;;;;3.10;2.00;;;;;;;;;;5031274;28;20664;-40
2023/04/05 03:41:51;;;;;;;2.03;1.83;;;;;;;;;;5014998;28;20607;-41
2023/04/05 03:44:18;;;;;;;2.57;1.90;;;;;;;;;;5016125;28;20197;-43
2023/04/05 03:46:45;;;;;;;1.63;1.53;;;;;;;;;;5012723;28;20236;-40
2023/04/05 03:49:15;;;;;;;1.70;1.60;;;;;;;;;;5018055;28;20209;-41
2023/04/05 03:51:42;;;;;;;1.63;1.53;;;;;;;;;;5035608;28;20228;-41
2023/04/05 03:54:09;;;;;;;3.90;2.03;;;;;;;;;;5035718;28;20204;-40
2023/04/05 03:56:37;;;;;;;2.43;1.73;;;;;;;;;;5018372;28;20205;-43
2023/04/05 03:59:14;;;;;;;1.90;1.80;;;;;;;;;;5018051;28;20197;-41
2023/04/05 04:01:41;;;;;;;2.30;1.77;;;;;;;;;;5035129;28;20209;-40
2023/04/05 04:04:08;;;;;;;2.70;2.07;;;;;;;;;;5011042;28;20236;-40
2023/04/05 04:06:36;;;;;;;2.50;1.63;;;;;;;;;;5034110;28;20705;-41
2023/04/05 04:09:04;;;;;;;2.87;2.00;;;;;;;;;;5040597;28;20228;-40
2023/04/05 04:11:32;;;;;;;2.40;1.90;;;;;;;;;;5022845;28;20244;-41
2023/04/05 04:14:03;;;;;;;2.60;1.97;;;;;;;;;;5026032;28;20225;-41
2023/04/05 04:16:37;;;;;;;2.33;1.50;;;;;;;;;;5020566;28;20225;-40
2023/04/05 04:19:30;;;;;;;1.80;1.70;;;;;;;;;;5050350;28;20228;-40
2023/04/05 04:22:19;;;;;;;3.80;1.83;;;;;;;;;;5027997;28;20224;-40
2023/04/05 04:25:19;;;;;;;1.80;1.57;;;;;;;;;;4973159;28;20230;-45
2023/04/05 04:28:09;;;;;;;3.00;2.27;;;;;;;;;;4972938;28;20231;-40
2023/04/05 04:30:46;;;;;;;1.70;1.37;;;;;;;;;;4957081;28;20328;-39
2023/04/05 04:33:33;;;;;;;2.60;2.00;;;;;;;;;;4972688;28;20290;-40
2023/04/05 04:36:33;;;;;;;2.87;1.47;;;;;;;;;;4972880;28;20701;-40
2023/04/05 04:39:33;;;;;;;2.33;2.00;;;;;;;;;;4972651;28;20230;-40
2023/04/05 04:42:22;;;;;;;2.10;1.57;;;;;;;;;;4973215;28;20222;-41
2023/04/05 04:45:18;;;;;;;2.23;1.70;;;;;;;;;;4964521;28;20712;-40
2023/04/05 04:48:08;;;;;;;2.50;1.67;;;;;;;;;;4965626;28;20282;-41
2023/04/05 04:50:48;;;;;;;2.30;2.13;;;;;;;;;;4968582;28;20231;-40
2023/04/05 04:53:18;;;;;;;1.63;1.50;;;;;;;;;;4971599;28;20226;-41
2023/04/05 04:55:48;;;;;;;1.80;1.70;;;;;;;;;;4963879;28;20215;-40
2023/04/05 04:58:16;;;;;;;1.40;1.13;;;;;;;;;;4952994;28;20223;-41
2023/04/05 05:00:51;;;;;;;1.50;1.37;;;;;;;;;;4950499;28;20230;-40
2023/04/05 05:03:18;;;;;;;2.30;1.43;;;;;;;;;;4972091;28;20230;-43
2023/04/05 05:05:48;;;;;;;1.53;1.30;;;;;;;;;;4972898;28;20289;-40
2023/04/05 05:08:20;;;;;;;1.93;1.43;;;;;;;;;;4972682;28;20293;-42
2023/04/05 05:10:52;;;;;;;3.10;1.73;;;;;;;;;;4972430;28;20219;-39
2023/04/05 05:13:19;;;;;;;1.70;1.60;;;;;;;;;;4972800;28;20584;-44
2023/04/05 05:15:47;;;;;;;1.20;1.10;;;;;;;;;;5012960;28;20689;-43
2023/04/05 05:18:14;;;;;;;1.50;1.40;;;;;;;;;;5030832;28;20956;-41
2023/04/05 05:20:42;;;;;;;2.03;1.80;;;;;;;;;;5031967;28;20207;-41
2023/04/05 05:23:09;;;;;;;1.53;1.03;;;;;;;;;;5032536;28;20212;-40
2023/04/05 05:25:36;;;;;;;2.27;1.83;;;;;;;;;;5027741;28;20204;-41
2023/04/05 05:28:04;;;;;;;1.67;1.47;;;;;;;;;;5032080;28;20221;-42
2023/04/05 05:30:32;;;;;;;3.47;1.37;;;;;;;;;;5032054;28;20232;-41
2023/04/05 05:33:00;;;;;;;3.20;1.97;;;;;;;;;;5032466;28;20677;-40
2023/04/05 05:35:27;;;;;;;1.87;1.53;;;;;;;;;;5032756;28;20528;-42
2023/04/05 05:37:54;;;;;;;2.37;1.97;;;;;;;;;;5031470;28;20234;-42
2023/04/05 05:40:21;;;;;;;4.90;2.27;;;;;;;;;;5030764;28;20208;-41
2023/04/05 05:42:48;;;;;;;3.67;1.80;;;;;;;;;;5031922;28;20203;-40
2023/04/05 05:45:16;;;;;;;2.43;1.80;;;;;;;;;;5028958;28;20200;-45
2023/04/05 05:47:43;;;;;;;2.50;1.50;;;;;;;;;;5032036;28;20227;-40
2023/04/05 05:50:10;;;;;;;3.17;2.20;;;;;;;;;;5031213;28;20263;-40
2023/04/05 05:52:37;;;;;;;4.07;2.33;;;;;;;;;;5030919;28;20193;-40
2023/04/05 05:55:06;;;;;;;2.33;2.07;;;;;;;;;;5032265;28;20205;-41
2023/04/05 05:57:33;;;;;;;1.60;1.50;;;;;;;;;;5032527;28;20193;-41
2023/04/05 06:00:00;;;;;;;2.60;1.83;;;;;;;;;;5032038;28;20218;-44
2023/04/05 06:02:37;;;;;;;2.93;1.97;;;;;;;;;;5029590;28;20197;-40
2023/04/05 06:05:05;;;;;;;2.00;1.80;;;;;;;;;;5031962;28;20209;-40
2023/04/05 06:07:36;;;;;;;1.70;1.40;;;;;;;;;;5032396;28;20243;-41
2023/04/05 06:10:04;;;;;;;2.17;1.57;;;;;;;;;;5032281;28;20192;-40
2023/04/05 06:12:31;;;;;;;1.90;1.73;;;;;;;;;;5033359;28;20259;-41
2023/04/05 06:15:00;;;;;;;2.87;1.87;;;;;;;;;;5028477;28;20232;-40
2023/04/05 06:17:27;;;;;;;1.90;1.63;;;;;;;;;;5030986;28;20220;-40
2023/04/05 06:19:55;;;;;;;1.90;1.73;;;;;;;;;;5028493;28;20258;-40
2023/04/05 06:22:22;;;;;;;2.23;2.00;;;;;;;;;;5039875;28;20225;-42
2023/04/05 06:24:49;;;;;;;3.57;1.87;;;;;;;;;;5035954;28;20228;-40
2023/04/05 06:27:16;;;;;;;2.97;1.77;;;;;;;;;;5031205;28;20240;-39
2023/04/05 06:29:43;;;;;;;1.90;1.70;;;;;;;;;;5030078;28;20244;-44
2023/04/05 06:32:10;;;;;;;1.63;1.53;;;;;;;;;;5013316;28;20220;-40
2023/04/05 06:34:38;;;;;;;1.57;1.47;;;;;;;;;;5029162;28;20233;-40
2023/04/05 06:37:05;;;;;;;2.07;1.57;;;;;;;;;;5031756;28;20286;-43
2023/04/05 06:39:33;;;;;;;1.30;1.20;;;;;;;;;;5031053;28;20224;-41
2023/04/05 06:42:00;;;;;;;1.70;1.47;;;;;;;;;;5031243;28;20315;-43
2023/04/05 06:44:36;;;;;;;2.00;1.60;;;;;;;;;;5014414;28;20212;-40
2023/04/05 06:47:03;;;;;;;1.80;1.50;;;;;;;;;;5013413;28;20233;-41
2023/04/05 06:49:31;;;;;;;2.40;1.53;;;;;;;;;;5031189;28;20221;-40
2023/04/05 06:51:57;;;;;;;2.00;1.80;;;;;;;;;;5030883;28;20286;-45
2023/04/05 06:54:25;;;;;;;1.33;1.23;;;;;;;;;;5030845;28;20220;-40
2023/04/05 06:56:52;;;;;;;2.50;2.30;;;;;;;;;;5031400;28;20208;-40
2023/04/05 06:59:19;;;;;;;2.23;1.97;;;;;;;;;;5029752;28;20217;-41
2023/04/05 07:01:46;;;;;;;2.50;1.40;;;;;;;;;;5031708;28;20244;-43
2023/04/05 07:04:14;;;;;;;2.07;1.60;;;;;;;;;;5034628;28;20228;-46
2023/04/05 07:06:41;;;;;;;1.93;1.70;;;;;;;;;;5034829;28;20224;-41
2023/04/05 07:09:08;;;;;;;1.57;1.47;;;;;;;;;;5032295;28;20221;-41
2023/04/05 07:11:35;;;;;;;2.10;1.90;;;;;;;;;;5034745;28;20217;-39
2023/04/05 07:14:02;;;;;;;1.93;1.63;;;;;;;;;;5033970;28;20213;-41
2023/04/05 07:16:29;;;;;;;1.97;1.53;;;;;;;;;;5031560;28;20770;-40
2023/04/05 07:18:56;;;;;;;1.60;1.50;;;;;;;;;;5034382;28;20709;-45
2023/04/05 07:21:23;;;;;;;2.03;1.50;;;;;;;;;;5034161;28;20216;-42
2023/04/05 07:23:52;;;;;;;2.33;2.03;;;;;;;;;;5034488;28;20236;-42
2023/04/05 07:26:19;;;;;;;4.47;2.30;;;;;;;;;;5033939;28;20231;-42
2023/04/05 07:28:46;;;;;;;2.63;1.50;;;;;;;;;;5034033;28;20212;-42
2023/04/05 07:31:14;;;;;;;2.10;1.70;;;;;;;;;;5034989;28;20228;-43
2023/04/05 07:33:41;;;;;;;1.97;1.77;;;;;;;;;;5034081;28;20262;-43
2023/04/05 07:36:08;;;;;;;1.97;1.60;;;;;;;;;;5033954;28;20270;-42
2023/04/05 07:38:35;;;;;;;2.20;1.63;;;;;;;;;;5034287;28;20286;-42
2023/04/05 07:41:02;;;;;;;3.13;1.70;;;;;;;;;;5033649;28;20717;-46
2023/04/05 07:43:29;;;;;;;1.53;1.40;;;;;;;;;;5031069;28;20569;-42
2023/04/05 07:46:01;;;;;;;2.73;2.10;;;;;;;;;;5033273;28;20217;-44
2023/04/05 07:48:29;;;;;;;3.23;1.33;;;;;;;;;;5031309;28;20232;-42
2023/04/05 07:50:56;;;;;;;2.10;1.90;;;;;;;;;;5034106;28;20216;-48
2023/04/05 07:53:23;;;;;;;2.13;1.70;;;;;;;;;;5032854;28;20228;-41
2023/04/05 07:55:52;;;;;;;2.13;1.50;;;;;;;;;;5037710;28;20217;-40
2023/04/05 07:58:19;;;;;;;1.40;1.30;;;;;;;;;;5032941;28;20224;-41
2023/04/05 08:00:46;;;;;;;1.60;1.40;;;;;;;;;;5033634;28;20254;-42
2023/04/05 08:03:13;;;;;;;2.23;1.80;;;;;;;;;;5033422;28;20532;-42
2023/04/05 08:05:40;;;;;;;2.73;2.10;;;;;;;;;;5032345;28;20621;-43
2023/04/05 08:08:09;;;;;;;1.50;1.30;;;;;;;;;;5034115;28;20237;-40
2023/04/05 08:10:39;;;;;;;1.90;1.43;;;;;;;;;;5034212;28;20207;-40
2023/04/05 08:13:07;;;;;;;2.57;1.50;;;;;;;;;;5034021;28;20200;-40
2023/04/05 08:15:34;;;;;;;1.50;1.40;;;;;;;;;;5015271;28;20300;-40
2023/04/05 08:18:02;;;;;;;1.90;1.50;;;;;;;;;;5015416;28;20201;-41
2023/04/05 08:20:29;;;;;;;1.63;1.47;;;;;;;;;;5015384;28;20658;-41
2023/04/05 08:22:57;;;;;;;2.30;1.43;;;;;;;;;;5015501;28;20247;-41
2023/04/05 08:25:24;;;;;;;1.37;1.10;;;;;;;;;;4999276;28;20201;-42
2023/04/05 08:27:51;;;;;;;2.40;1.60;;;;;;;;;;5031060;28;20232;-44
2023/04/05 08:30:18;;;;;;;4.63;1.57;;;;;;;;;;5033470;28;20278;-41
2023/04/05 08:32:46;;;;;;;2.13;1.70;;;;;;;;;;5033980;28;20212;-41
2023/04/05 08:35:13;;;;;;;3.80;2.17;;;;;;;;;;5033014;28;20192;-40
2023/04/05 08:37:40;;;;;;;1.90;1.67;;;;;;;;;;5034091;28;20258;-45
2023/04/05 08:40:07;;;;;;;1.90;1.73;;;;;;;;;;5033443;28;20616;-40
2023/04/05 08:42:36;;;;;;;2.77;1.77;;;;;;;;;;5033524;28;20217;-43
2023/04/05 08:45:03;;;;;;;1.90;1.70;;;;;;;;;;5033613;28;20227;-40
2023/04/05 08:47:33;;;;;;;2.67;1.70;;;;;;;;;;5033167;28;20235;-44
2023/04/05 08:50:00;;;;;;;3.20;1.77;;;;;;;;;;5033019;28;20672;-40
2023/04/05 08:52:30;;;;;;;1.87;1.57;;;;;;;;;;5032406;28;20620;-42
2023/04/05 08:54:57;;;;;;;1.60;1.50;;;;;;;;;;5033074;28;20280;-40
2023/04/05 08:57:28;;;;;;;2.10;1.77;;;;;;;;;;5034675;28;20208;-40
2023/04/05 08:59:56;;;;;;;1.70;1.50;;;;;;;;;;5033754;28;20215;-40
2023/04/05 09:02:24;;;;;;;1.73;1.60;;;;;;;;;;5034477;28;20196;-40
2023/04/05 09:04:51;;;;;;;3.23;1.60;;;;;;;;;;5034334;28;20193;-41
2023/04/05 09:07:19;;;;;;;2.87;2.20;;;;;;;;;;5033001;28;20229;-40
2023/04/05 09:09:49;;;;;;;3.00;1.37;;;;;;;;;;5034442;28;20263;-40
2023/04/05 09:12:19;;;;;;;2.23;1.73;;;;;;;;;;5031409;28;20201;-43
2023/04/05 09:14:48;;;;;;;2.70;1.80;;;;;;;;;;5034451;28;20207;-40
2023/04/05 09:17:18;;;;;;;2.20;1.43;;;;;;;;;;5032614;28;20207;-42
2023/04/05 09:19:48;;;;;;;2.17;1.90;;;;;;;;;;5032675;28;20283;-40
2023/04/05 09:22:19;;;;;;;2.70;1.63;;;;;;;;;;5014298;28;20201;-41
2023/04/05 09:24:46;;;;;;;2.33;1.47;;;;;;;;;;5013644;28;20229;-40
2023/04/05 09:27:18;;;;;;;1.70;1.60;;;;;;;;;;4996871;28;20229;-40
2023/04/05 09:29:54;;;;;;;2.13;1.93;;;;;;;;;;5036168;28;20250;-40
2023/04/05 09:32:26;;;;;;;2.53;1.37;;;;;;;;;;5033378;28;20765;-40
2023/04/05 09:34:53;;;;;;;2.27;1.93;;;;;;;;;;5034035;28;20207;-42
2023/04/05 09:37:27;;;;;;;4.47;1.90;;;;;;;;;;5016653;28;20207;-42
2023/04/05 09:40:02;;;;;;;1.97;1.77;;;;;;;;;;5003028;28;20196;-41
2023/04/05 09:42:46;;;;;;;2.00;1.50;;;;;;;;;;5023344;28;20543;-44
2023/04/05 09:45:14;;;;;;;1.60;1.50;;;;;;;;;;5023431;28;20200;-42
2023/04/05 09:47:59;;;;;;;2.73;1.47;;;;;;;;;;5032553;28;20212;-41
2023/04/05 09:50:26;;;;;;;3.00;1.90;;;;;;;;;;5032127;28;20744;-42
2023/04/05 09:53:14;;;;;;;3.67;1.70;;;;;;;;;;5012685;28;20234;-51
2023/04/05 09:55:42;;;;;;;2.13;1.67;;;;;;;;;;5029643;28;20751;-41
2023/04/05 09:58:18;;;;;;;2.43;1.83;;;;;;;;;;5033159;28;20228;-45
2023/04/05 10:00:52;;;;;;;1.60;1.50;;;;;;;;;;5031420;28;20224;-42
2023/04/05 10:03:29;;;;;;;2.03;1.50;;;;;;;;;;5030349;28;20708;-41
2023/04/05 10:05:56;;;;;;;1.90;1.63;;;;;;;;;;5028902;28;20307;-44
2023/04/05 10:08:24;;;;;;;2.30;1.57;;;;;;;;;;5030623;28;20244;-41
2023/04/05 10:10:53;;;;;;;1.97;1.43;;;;;;;;;;5030462;28;20712;-41
2023/04/05 10:13:21;;;;;;;2.17;1.40;;;;;;;;;;5031140;28;20224;-42
2023/04/05 10:15:49;;;;;;;2.13;1.63;;;;;;;;;;5030388;28;20701;-45
2023/04/05 10:18:18;;;;;;;2.10;1.50;;;;;;;;;;5028948;28;20228;-42
2023/04/05 10:20:49;;;;;;;2.50;1.93;;;;;;;;;;5031078;28;20279;-41
2023/04/05 10:23:25;;;;;;;3.23;1.43;;;;;;;;;;5028301;28;20217;-40
2023/04/05 10:26:03;;;;;;;1.40;1.27;;;;;;;;;;5029055;28;20718;-42
2023/04/05 10:28:36;;;;;;;2.03;1.70;;;;;;;;;;5029188;28;20262;-42
2023/04/05 10:31:30;;;;;;;2.00;1.43;;;;;;;;;;5030123;28;20294;-41
2023/04/05 10:34:07;;;;;;;1.20;1.10;;;;;;;;;;5019312;28;20213;-40
2023/04/05 10:37:19;;;;;;;2.67;1.67;;;;;;;;;;5015585;28;20213;-41
2023/04/05 10:39:47;;;;;;;1.53;1.43;;;;;;;;;;4976152;28;20233;-42
2023/04/05 10:42:21;;;;;;;2.00;1.47;;;;;;;;;;4991637;28;20381;-45
2023/04/05 10:44:52;;;;;;;1.77;1.30;;;;;;;;;;4991614;28;20240;-45
2023/04/05 10:47:22;;;;;;;2.53;1.57;;;;;;;;;;4991648;28;20228;-47
2023/04/05 10:49:52;;;;;;;2.20;1.53;;;;;;;;;;4993060;28;20851;-43
2023/04/05 10:52:21;;;;;;;1.77;1.30;;;;;;;;;;4994084;28;20222;-43
2023/04/05 10:54:48;;;;;;;1.47;1.30;;;;;;;;;;4992979;28;20217;-44
2023/04/05 10:57:18;;;;;;;2.67;1.93;;;;;;;;;;4994107;28;20268;-40
2023/04/05 10:59:45;;;;;;;3.13;1.70;;;;;;;;;;4993401;28;20706;-47
2023/04/05 11:02:13;;;;;;;26.50;9.00;;;;;;;;;;4992651;28;20281;-44
2023/04/05 11:04:40;;;;;;;1.63;1.30;;;;;;;;;;4992549;28;20769;-43
2023/04/05 11:07:16;;;;;;;1.83;1.30;;;;;;;;;;4993270;28;20675;-40
2023/04/05 11:09:51;;;;;;;1.77;1.23;;;;;;;;;;5006425;28;20694;-41
2023/04/05 11:12:18;;;;;;;1.83;1.60;;;;;;;;;;4992685;28;20217;-43
2023/04/05 11:14:45;;;;;;;1.17;1.07;;;;;;;;;;5032457;28;20220;-43
2023/04/05 11:17:27;;;;;;;3.10;1.10;;;;;;;;;;5016296;28;20223;-43
2023/04/05 11:20:02;;;;;;;0.90;0.83;;;;;;;;;;5032339;28;20219;-45
2023/04/05 11:22:30;;;;;;;1.63;0.87;;;;;;;;;;5034125;28;20238;-42
2023/04/05 11:25:00;;;;;;;1.17;1.00;;;;;;;;;;5033967;28;20220;-46
2023/04/05 11:27:29;;;;;;;1.10;1.00;;;;;;;;;;5034477;28;20219;-41
2023/04/05 11:29:58;;;;;;;1.43;1.20;;;;;;;;;;5034894;28;20258;-41
2023/04/05 11:32:39;;;;;;;1.27;1.13;;;;;;;;;;5034163;28;20811;-41
2023/04/05 11:35:21;;;;;;;1.67;1.13;;;;;;;;;;5032982;28;20263;-43
2023/04/05 11:38:09;;;;;;;1.73;1.00;;;;;;;;;;5033669;28;20216;-43
2023/04/05 11:40:39;;;;;;;2.27;1.10;;;;;;;;;;5033716;28;20237;-43
2023/04/05 11:43:10;;;;;;;1.13;1.00;;;;;;;;;;5033936;28;20773;-41
2023/04/05 11:45:38;;;;;;;2.87;1.37;;;;;;;;;;5033995;28;20228;-42
2023/04/05 11:48:10;;;;;;;0.90;0.90;;;;;;;;;;5032625;28;20275;-40
2023/04/05 11:50:40;;;;;;;1.47;1.10;;;;;;;;;;5033621;28;20286;-41
2023/04/05 11:53:12;;;;;;;1.27;1.10;;;;;;;;;;5033402;28;20227;-42
2023/04/05 11:55:42;;;;;;;2.43;1.20;;;;;;;;;;5033131;28;20562;-42
2023/04/05 11:58:11;;;;;;;1.00;1.00;;;;;;;;;;5034677;28;20275;-40
2023/04/05 12:00:40;;;;;;;1.70;1.00;;;;;;;;;;5033194;28;20709;-42
2023/04/05 12:03:15;;;;;;;2.40;1.30;;;;;;;;;;5034016;28;20266;-41
2023/04/05 12:05:52;;;;;;;2.00;1.20;;;;;;;;;;5033416;28;20274;-43
2023/04/05 12:08:20;;;;;;;1.20;1.10;;;;;;;;;;5033008;28;20708;-43
2023/04/05 12:11:00;;;;;;;1.63;1.30;;;;;;;;;;5030061;28;20217;-41
2023/04/05 12:13:28;;;;;;;2.23;1.47;;;;;;;;;;5033593;28;20300;-41
2023/04/05 12:15:59;;;;;;;1.10;1.00;;;;;;;;;;5033582;28;20228;-44
2023/04/05 12:18:27;;;;;;;1.40;1.30;;;;;;;;;;5032191;28;20315;-44
2023/04/05 12:20:55;;;;;;;2.73;1.13;;;;;;;;;;5033302;28;20698;-41
2023/04/05 12:23:23;;;;;;;1.77;1.30;;;;;;;;;;5031784;28;20225;-40
2023/04/05 12:25:52;;;;;;;1.60;1.30;;;;;;;;;;5031127;28;20220;-41
2023/04/05 12:28:19;;;;;;;0.97;0.90;;;;;;;;;;5032972;28;20255;-42
2023/04/05 12:30:48;;;;;;;2.03;1.30;;;;;;;;;;5031766;28;20240;-41
2023/04/05 12:33:25;;;;;;;1.20;1.03;;;;;;;;;;5032876;28;20252;-41
2023/04/05 12:35:53;;;;;;;2.83;1.40;;;;;;;;;;5034257;28;20719;-40
2023/04/05 12:38:20;;;;;;;3.47;1.20;;;;;;;;;;5033530;28;20263;-40
2023/04/05 12:40:47;;;;;;;1.73;1.10;;;;;;;;;;5034387;28;20240;-40
2023/04/05 12:43:18;;;;;;;2.10;1.40;;;;;;;;;;5033230;28;20315;-41
2023/04/05 12:45:49;;;;;;;1.47;1.00;;;;;;;;;;5029724;28;20217;-42
2023/04/05 12:48:25;;;;;;;0.83;0.80;;;;;;;;;;5027885;28;20229;-41
2023/04/05 12:50:53;;;;;;;1.07;0.90;;;;;;;;;;5028850;28;20212;-43
2023/04/05 12:53:22;;;;;;;1.13;1.00;;;;;;;;;;5033922;28;20223;-42
2023/04/05 12:55:51;;;;;;;2.53;1.40;;;;;;;;;;5033079;28;20217;-42
2023/04/05 12:58:20;;;;;;;5.67;1.30;;;;;;;;;;5033752;28;20266;-40
2023/04/05 13:00:47;;;;;;;2.23;1.10;;;;;;;;;;5032423;28;20223;-42
2023/04/05 13:03:20;;;;;;;1.20;1.03;;;;;;;;;;5031982;28;20719;-42
2023/04/05 13:05:48;;;;;;;1.40;1.07;;;;;;;;;;5032484;28;20212;-43
2023/04/05 13:08:17;;;;;;;1.30;1.20;;;;;;;;;;5031603;28;20229;-43
2023/04/05 13:10:46;;;;;;;1.27;1.17;;;;;;;;;;5028794;28;20307;-43
2023/04/05 13:13:14;;;;;;;3.00;1.33;;;;;;;;;;5032113;28;20211;-43
2023/04/05 13:15:41;;;;;;;1.27;1.03;;;;;;;;;;5031883;28;20771;-41
2023/04/05 13:18:09;;;;;;;1.20;1.10;;;;;;;;;;5031845;28;20578;-44
2023/04/05 13:20:37;;;;;;;1.17;1.00;;;;;;;;;;5029137;28;20611;-43
2023/04/05 13:23:09;;;;;;;1.30;1.20;;;;;;;;;;5031238;28;20252;-40
2023/04/05 13:25:41;;;;;;;1.00;0.80;;;;;;;;;;5030722;28;20271;-43
2023/04/05 13:28:09;;;;;;;1.43;1.13;;;;;;;;;;5028981;28;20290;-48
2023/04/05 13:30:37;;;;;;;3.80;1.03;;;;;;;;;;5031421;28;20757;-42
2023/04/05 13:33:04;;;;;;;1.37;1.10;;;;;;;;;;5031162;28;20311;-41
2023/04/05 13:35:32;;;;;;;2.17;1.30;;;;;;;;;;5032108;28;20224;-49
2023/04/05 13:38:00;;;;;;;2.33;1.40;;;;;;;;;;5031464;28;20248;-43
2023/04/05 13:40:31;;;;;;;2.43;0.90;;;;;;;;;;5020034;28;20582;-42
2023/04/05 13:42:58;;;;;;;2.40;1.20;;;;;;;;;;5032090;28;20220;-44
2023/04/05 13:45:30;;;;;;;1.80;1.10;;;;;;;;;;5030485;28;20228;-47
2023/04/05 13:47:58;;;;;;;1.27;1.00;;;;;;;;;;5031746;28;20231;-42
2023/04/05 13:50:25;;;;;;;4.07;1.40;;;;;;;;;;5030675;28;20617;-43
2023/04/05 13:52:52;;;;;;;3.60;0.97;;;;;;;;;;5031816;28;20355;-43
2023/04/05 13:55:20;;;;;;;1.87;0.90;;;;;;;;;;5030933;28;20225;-44
2023/04/05 13:57:47;;;;;;;1.50;0.90;;;;;;;;;;5031313;28;20236;-44
2023/04/05 14:00:14;;;;;;;4.10;1.90;;;;;;;;;;5030623;28;20228;-43
2023/04/05 14:02:42;;;;;;;1.90;1.57;;;;;;;;;;5032041;28;20603;-41
2023/04/05 14:05:10;;;;;;;3.70;1.40;;;;;;;;;;5031416;28;20575;-42
2023/04/05 14:07:37;;;;;;;6.10;2.20;;;;;;;;;;5031003;28;20259;-47
2023/04/05 14:10:05;;;;;;;1.37;1.13;;;;;;;;;;5028526;28;20220;-42
2023/04/05 14:12:33;;;;;;;1.50;1.23;;;;;;;;;;5030887;28;20401;-41
2023/04/05 14:15:00;;;;;;;1.40;1.10;;;;;;;;;;5027319;28;20228;-44
2023/04/05 14:17:27;;;;;;;2.93;1.33;;;;;;;;;;5030599;28;20564;-43
2023/04/05 14:19:55;;;;;;;0.80;0.80;;;;;;;;;;5030313;28;20243;-48
2023/04/05 14:22:22;;;;;;;1.97;1.00;;;;;;;;;;5029897;28;20549;-42
2023/04/05 14:24:49;;;;;;;3.67;1.20;;;;;;;;;;5028284;28;20220;-45
2023/04/05 14:27:16;;;;;;;1.30;1.20;;;;;;;;;;5028624;28;20307;-44
2023/04/05 14:29:44;;;;;;;3.53;1.50;;;;;;;;;;5029097;28;20237;-43
2023/04/05 14:32:11;;;;;;;0.83;0.83;;;;;;;;;;5030094;28;20225;-45
2023/04/05 14:34:39;;;;;;;2.00;0.90;;;;;;;;;;5030326;28;20220;-45
2023/04/05 14:37:06;;;;;;;1.10;1.00;;;;;;;;;;5029335;28;20227;-46
2023/04/05 14:39:34;;;;;;;1.87;1.17;;;;;;;;;;5029976;28;20224;-42
2023/04/05 14:42:01;;;;;;;3.00;1.30;;;;;;;;;;5026929;28;20709;-43
2023/04/05 14:44:28;;;;;;;1.03;0.90;;;;;;;;;;5030855;28;20271;-42
2023/04/05 14:46:55;;;;;;;2.40;1.07;;;;;;;;;;5030631;28;20229;-46
2023/04/05 14:49:22;;;;;;;1.10;1.00;;;;;;;;;;5030984;28;20240;-41
2023/04/05 14:51:49;;;;;;;1.07;0.83;;;;;;;;;;5030022;28;20311;-41
2023/04/05 14:54:17;;;;;;;0.80;0.80;;;;;;;;;;5030504;28;20224;-44
2023/04/05 14:56:44;;;;;;;0.87;0.87;;;;;;;;;;5030287;28;20287;-43
2023/04/05 14:59:11;;;;;;;1.00;0.90;;;;;;;;;;5029489;28;20244;-42
2023/04/05 15:01:41;;;;;;;0.73;0.73;;;;;;;;;;5029606;28;20224;-42
2023/04/05 15:04:08;;;;;;;1.17;0.93;;;;;;;;;;5029282;28;20220;-46